Time;durP1;ratioP1;P1;durP2;ratioP2;P2;SDS_P1;SDS_P2;PMS_P1;PMS_P2;Temp;Humidity;BMP_temperature;BMP_pressure;BME280_temperature;BME280_humidity;BME280_pressure;Samples;Min_cycle;Max_cycle;Signal;HPM_P1;HPM_P2
2021/04/20 00:02:02;;;;;;;26.97;23.97;;;5.50;99.90;;;;;;5047478;28;20191;-77
2021/04/20 00:04:29;;;;;;;25.33;21.70;;;5.40;99.90;;;;;;5070344;28;20211;-77
2021/04/20 00:06:55;;;;;;;23.17;20.80;;;5.40;99.90;;;;;;5054533;28;20950;-77
2021/04/20 00:09:21;;;;;;;22.97;20.47;;;5.30;99.90;;;;;;5054837;28;20437;-77
2021/04/20 00:11:48;;;;;;;22.70;20.33;;;5.20;99.90;;;;;;5053598;28;20206;-77
2021/04/20 00:14:15;;;;;;;24.93;20.87;;;5.20;99.90;;;;;;5053678;28;20596;-77
2021/04/20 00:16:41;;;;;;;30.43;23.23;;;5.10;99.90;;;;;;5055103;28;20194;-77
2021/04/20 00:19:09;;;;;;;23.43;19.87;;;5.10;99.90;;;;;;5069960;28;20203;-77
2021/04/20 00:21:36;;;;;;;22.97;19.57;;;5.00;99.90;;;;;;5054550;28;20433;-76
2021/04/20 00:24:03;;;;;;;23.93;19.60;;;4.80;99.90;;;;;;5053017;28;20461;-77
2021/04/20 00:26:29;;;;;;;29.33;22.57;;;4.70;99.90;;;;;;5054891;28;20434;-77
2021/04/20 00:28:55;;;;;;;29.50;23.97;;;4.70;99.90;;;;;;5053480;28;20449;-77
2021/04/20 00:31:22;;;;;;;26.97;23.60;;;4.70;99.90;;;;;;5053477;28;20446;-77
2021/04/20 00:33:48;;;;;;;27.13;22.90;;;4.70;99.90;;;;;;5053414;28;20535;-77
2021/04/20 00:36:15;;;;;;;25.10;21.50;;;4.60;99.90;;;;;;5069552;28;20548;-77
2021/04/20 00:38:41;;;;;;;27.20;23.77;;;4.50;99.90;;;;;;5054208;28;20491;-77
2021/04/20 00:41:09;;;;;;;27.43;24.53;;;4.50;99.90;;;;;;5052724;28;20449;-77
2021/04/20 00:43:37;;;;;;;29.23;25.17;;;4.40;99.90;;;;;;5052381;28;20482;-77
2021/04/20 00:46:06;;;;;;;28.73;23.47;;;4.40;99.90;;;;;;5054088;28;20429;-77
2021/04/20 00:48:33;;;;;;;27.00;23.33;;;4.40;99.90;;;;;;5052020;28;20960;-78
2021/04/20 00:50:59;;;;;;;28.03;24.50;;;4.30;99.90;;;;;;5051873;28;20754;-78
2021/04/20 00:53:26;;;;;;;27.17;23.47;;;4.20;99.90;;;;;;5060239;28;20476;-78
2021/04/20 00:55:53;;;;;;;27.67;23.00;;;4.20;99.90;;;;;;5060662;28;20832;-78
2021/04/20 00:58:19;;;;;;;30.30;24.87;;;4.10;99.90;;;;;;5053077;28;20491;-78
2021/04/20 01:00:48;;;;;;;24.47;21.87;;;4.10;99.90;;;;;;5051269;28;20445;-78
2021/04/20 01:03:14;;;;;;;24.10;21.50;;;4.00;99.90;;;;;;5053140;28;20453;-78
2021/04/20 01:05:41;;;;;;;22.90;19.60;;;4.00;99.90;;;;;;5069002;28;20813;-77
2021/04/20 01:08:09;;;;;;;27.47;20.27;;;3.90;99.90;;;;;;5053751;28;20816;-78
2021/04/20 01:10:39;;;;;;;24.17;21.40;;;3.90;99.90;;;;;;5053370;28;20448;-78
2021/04/20 01:13:06;;;;;;;28.10;23.60;;;3.90;99.90;;;;;;5052464;28;20891;-78
2021/04/20 01:15:33;;;;;;;28.43;22.27;;;3.90;99.90;;;;;;5052181;28;20476;-78
2021/04/20 01:18:10;;;;;;;25.40;22.57;;;3.90;99.90;;;;;;5053104;28;20433;-78
2021/04/20 01:20:37;;;;;;;29.10;23.73;;;4.00;99.90;;;;;;5053246;28;20443;-78
2021/04/20 01:23:03;;;;;;;28.07;24.40;;;4.00;99.90;;;;;;5053055;28;20430;-78
2021/04/20 01:25:31;;;;;;;28.97;22.90;;;3.90;99.90;;;;;;5053269;28;20441;-78
2021/04/20 01:27:57;;;;;;;26.37;21.90;;;3.90;99.90;;;;;;5051723;28;20571;-78
2021/04/20 01:30:24;;;;;;;28.07;23.83;;;3.90;99.90;;;;;;5068910;28;20452;-78
2021/04/20 01:32:50;;;;;;;26.30;22.83;;;3.90;99.90;;;;;;5051437;28;20444;-78
2021/04/20 01:35:17;;;;;;;28.83;23.20;;;3.90;99.90;;;;;;5052000;28;20518;-78
2021/04/20 01:37:43;;;;;;;25.03;20.80;;;3.90;99.90;;;;;;5051331;28;20459;-78
2021/04/20 01:40:11;;;;;;;27.27;20.83;;;3.90;99.90;;;;;;5068044;28;20465;-78
2021/04/20 01:42:39;;;;;;;29.07;20.70;;;3.90;99.90;;;;;;5067962;28;20445;-77
2021/04/20 01:45:07;;;;;;;27.87;20.33;;;3.80;99.90;;;;;;5048656;28;20499;-78
2021/04/20 01:47:33;;;;;;;25.43;19.47;;;3.80;99.90;;;;;;5051628;28;20530;-77
2021/04/20 01:50:01;;;;;;;21.90;18.73;;;3.80;99.90;;;;;;5043317;28;20452;-78
2021/04/20 01:52:27;;;;;;;22.20;18.07;;;3.80;99.90;;;;;;5052775;28;20517;-78
2021/04/20 01:54:54;;;;;;;27.77;23.30;;;3.70;99.90;;;;;;5052552;28;20482;-78
2021/04/20 01:57:21;;;;;;;29.73;23.63;;;3.70;99.90;;;;;;5051518;28;20828;-77
2021/04/20 01:59:49;;;;;;;25.33;22.63;;;3.80;99.90;;;;;;5051076;28;20512;-78
2021/04/20 02:02:16;;;;;;;27.87;22.77;;;3.80;99.90;;;;;;5050080;28;20447;-77
2021/04/20 02:04:42;;;;;;;24.97;21.60;;;3.80;99.90;;;;;;5053098;28;20465;-78
2021/04/20 02:07:09;;;;;;;27.07;22.90;;;3.80;99.90;;;;;;5051440;28;20446;-78
2021/04/20 02:09:35;;;;;;;26.10;21.97;;;3.70;99.90;;;;;;5067426;28;20448;-77
2021/04/20 02:12:03;;;;;;;26.30;21.60;;;3.70;99.90;;;;;;5052341;28;20948;-78
2021/04/20 02:14:29;;;;;;;26.80;20.80;;;3.70;99.90;;;;;;5051724;28;20475;-78
2021/04/20 02:16:57;;;;;;;24.37;20.33;;;3.70;99.90;;;;;;5067733;28;20448;-78
2021/04/20 02:19:24;;;;;;;24.77;20.77;;;3.60;99.90;;;;;;5050972;28;20438;-78
2021/04/20 02:21:53;;;;;;;21.37;19.03;;;3.60;99.90;;;;;;5050906;28;20455;-77
2021/04/20 02:24:19;;;;;;;22.77;19.27;;;3.50;99.90;;;;;;5052489;28;20449;-78
2021/04/20 02:26:46;;;;;;;20.90;17.20;;;3.50;99.90;;;;;;5050959;28;20447;-78
2021/04/20 02:29:12;;;;;;;20.83;18.37;;;3.50;99.90;;;;;;5052204;28;20453;-77
2021/04/20 02:31:40;;;;;;;24.43;19.77;;;3.50;99.90;;;;;;5050993;28;20819;-77
2021/04/20 02:34:11;;;;;;;22.97;20.63;;;3.50;99.90;;;;;;5053160;28;20478;-78
2021/04/20 02:36:40;;;;;;;24.10;21.47;;;3.40;99.90;;;;;;5050805;28;20450;-77
2021/04/20 02:39:07;;;;;;;25.70;21.27;;;3.40;99.90;;;;;;5051110;28;20502;-77
2021/04/20 02:41:34;;;;;;;21.87;19.50;;;3.30;99.90;;;;;;5051153;28;20455;-80
2021/04/20 02:44:02;;;;;;;23.77;20.37;;;3.30;99.90;;;;;;5052725;28;20869;-80
2021/04/20 02:46:28;;;;;;;22.03;18.97;;;3.30;99.90;;;;;;5053222;28;21033;-79
2021/04/20 02:48:55;;;;;;;23.80;20.03;;;3.30;99.90;;;;;;5064529;28;20453;-78
2021/04/20 02:51:23;;;;;;;25.60;21.57;;;3.20;99.90;;;;;;5052117;28;20453;-80
2021/04/20 02:53:49;;;;;;;24.17;21.13;;;3.20;99.90;;;;;;5054499;28;20820;-82
2021/04/20 02:56:18;;;;;;;29.83;22.03;;;3.20;99.90;;;;;;5052864;28;20975;-82
2021/04/20 02:58:45;;;;;;;25.50;22.73;;;3.20;99.90;;;;;;5051748;28;20443;-78
2021/04/20 03:01:18;;;;;;;27.20;22.93;;;3.10;99.90;;;;;;5052870;28;20462;-78
2021/04/20 03:03:46;;;;;;;25.30;21.43;;;3.10;99.90;;;;;;5051124;28;20535;-80
2021/04/20 03:06:13;;;;;;;23.40;20.97;;;3.10;99.90;;;;;;5054335;28;20939;-80
2021/04/20 03:08:42;;;;;;;24.37;21.93;;;3.10;99.90;;;;;;5064974;28;20474;-78
2021/04/20 03:11:14;;;;;;;23.30;21.07;;;3.00;99.90;;;;;;5037659;28;20536;-79
2021/04/20 03:13:41;;;;;;;22.57;20.57;;;3.00;99.90;;;;;;5042585;28;20497;-80
2021/04/20 03:16:09;;;;;;;22.90;20.80;;;3.00;99.90;;;;;;5052045;28;20457;-80
2021/04/20 03:18:35;;;;;;;24.03;21.93;;;3.00;99.90;;;;;;5052907;28;20465;-81
2021/04/20 03:21:02;;;;;;;24.87;22.43;;;2.90;99.90;;;;;;5051863;28;20446;-79
2021/04/20 03:23:31;;;;;;;24.20;21.90;;;2.90;99.90;;;;;;5070660;28;20878;-80
2021/04/20 03:25:59;;;;;;;25.00;22.60;;;2.80;99.90;;;;;;5068009;28;20852;-79
2021/04/20 03:28:26;;;;;;;23.90;21.50;;;2.90;99.90;;;;;;5055789;28;20457;-79
2021/04/20 03:30:54;;;;;;;22.57;20.37;;;2.80;99.90;;;;;;5064847;28;20453;-79
2021/04/20 03:33:23;;;;;;;21.97;19.83;;;2.80;99.90;;;;;;5054977;28;20502;-80
2021/04/20 03:35:58;;;;;;;20.47;18.53;;;2.80;99.90;;;;;;5054727;28;20476;-79
2021/04/20 03:38:32;;;;;;;22.40;20.23;;;2.70;99.90;;;;;;5064127;28;20457;-80
2021/04/20 03:41:04;;;;;;;22.37;20.27;;;2.70;99.90;;;;;;5056951;28;20480;-81
2021/04/20 03:43:34;;;;;;;23.03;20.83;;;2.70;99.90;;;;;;5050206;28;20480;-79
2021/04/20 03:46:03;;;;;;;24.20;21.97;;;2.70;99.90;;;;;;5073369;28;20476;-79
2021/04/20 03:48:35;;;;;;;25.10;22.17;;;2.70;99.90;;;;;;5061895;28;20469;-79
2021/04/20 03:51:07;;;;;;;23.83;21.57;;;2.80;99.90;;;;;;5055908;28;20432;-79
2021/04/20 03:53:36;;;;;;;23.40;21.20;;;2.80;99.90;;;;;;5056603;28;20456;-81
2021/04/20 03:56:05;;;;;;;23.07;20.80;;;2.80;99.90;;;;;;5055206;28;20497;-84
2021/04/20 03:58:32;;;;;;;23.53;21.13;;;2.80;99.90;;;;;;5056003;28;20426;-80
2021/04/20 04:01:03;;;;;;;22.10;19.93;;;2.80;99.90;;;;;;5057046;28;20974;-78
2021/04/20 04:03:31;;;;;;;21.47;19.43;;;2.80;99.90;;;;;;5056926;28;20525;-79
2021/04/20 04:05:59;;;;;;;20.33;14.97;;;2.80;99.90;;;;;;5054735;28;20426;-81
2021/04/20 04:08:27;;;;;;;16.33;13.10;;;2.80;99.90;;;;;;5071625;28;20460;-79
2021/04/20 04:10:56;;;;;;;19.40;12.97;;;2.90;99.90;;;;;;5055651;28;20949;-81
2021/04/20 04:13:26;;;;;;;16.03;12.27;;;2.90;99.90;;;;;;5058357;28;20469;-79
2021/04/20 04:15:58;;;;;;;14.97;11.73;;;2.90;99.90;;;;;;5075309;28;20526;-80
2021/04/20 04:18:27;;;;;;;13.30;10.47;;;3.00;99.90;;;;;;5060327;28;20434;-81
2021/04/20 04:20:53;;;;;;;14.83;11.50;;;3.00;99.90;;;;;;5060129;28;20913;-81
2021/04/20 04:23:23;;;;;;;16.07;12.47;;;2.90;99.90;;;;;;5059257;28;20462;-82
2021/04/20 04:25:54;;;;;;;16.63;13.40;;;2.90;99.90;;;;;;5060360;28;20431;-80
2021/04/20 04:28:23;;;;;;;17.37;13.63;;;2.90;99.90;;;;;;5060914;28;20512;-77
2021/04/20 04:30:52;;;;;;;14.60;12.23;;;3.00;99.90;;;;;;5060457;28;20459;-81
2021/04/20 04:33:20;;;;;;;16.77;13.10;;;3.00;99.90;;;;;;5059272;28;20454;-81
2021/04/20 04:35:48;;;;;;;16.00;12.87;;;3.00;99.90;;;;;;5057605;28;20509;-81
2021/04/20 04:38:15;;;;;;;15.63;12.13;;;3.10;99.90;;;;;;5055026;28;20445;-81
2021/04/20 04:40:42;;;;;;;14.40;12.57;;;3.10;99.90;;;;;;5055559;28;20447;-81
2021/04/20 04:43:10;;;;;;;15.37;13.77;;;3.20;99.90;;;;;;5046866;28;20535;-77
2021/04/20 04:45:36;;;;;;;19.10;14.30;;;3.30;99.90;;;;;;5051655;28;20448;-78
2021/04/20 04:48:05;;;;;;;16.00;13.37;;;3.20;99.90;;;;;;5051963;28;20438;-78
2021/04/20 04:50:33;;;;;;;16.23;13.17;;;3.30;99.90;;;;;;5052584;28;20433;-78
2021/04/20 04:53:01;;;;;;;16.70;14.07;;;3.30;99.90;;;;;;5051625;28;20466;-78
2021/04/20 04:55:27;;;;;;;16.57;13.67;;;3.30;99.90;;;;;;5053015;28;20483;-78
2021/04/20 04:57:56;;;;;;;15.33;13.07;;;3.40;99.90;;;;;;5051079;28;20502;-77
2021/04/20 05:00:23;;;;;;;18.13;14.00;;;3.40;99.90;;;;;;5053163;28;21008;-77
2021/04/20 05:02:50;;;;;;;16.80;14.37;;;3.40;99.90;;;;;;5068146;28;20461;-77
2021/04/20 05:05:18;;;;;;;17.23;15.07;;;3.50;99.90;;;;;;5051783;28;20445;-77
2021/04/20 05:07:45;;;;;;;17.00;14.63;;;3.50;99.90;;;;;;5068602;28;20867;-77
2021/04/20 05:10:13;;;;;;;17.77;14.67;;;3.50;99.90;;;;;;5062806;28;20878;-78
2021/04/20 05:12:41;;;;;;;15.63;13.60;;;3.60;99.90;;;;;;5052061;28;20824;-78
2021/04/20 05:15:09;;;;;;;18.20;15.37;;;3.70;99.90;;;;;;5053250;28;20477;-78
2021/04/20 05:17:37;;;;;;;16.63;14.17;;;3.70;99.90;;;;;;5053325;28;20433;-77
2021/04/20 05:20:05;;;;;;;17.17;15.43;;;3.90;99.90;;;;;;5052431;28;20450;-78
2021/04/20 05:22:34;;;;;;;17.60;15.80;;;4.00;99.90;;;;;;5051880;28;20502;-76
2021/04/20 05:25:01;;;;;;;22.00;19.90;;;4.00;99.90;;;;;;5051558;28;20562;-77
2021/04/20 05:27:27;;;;;;;21.47;19.53;;;4.10;99.90;;;;;;5050943;28;20460;-76
2021/04/20 05:29:53;;;;;;;20.83;19.03;;;4.10;99.90;;;;;;5051222;28;20878;-76
2021/04/20 05:32:20;;;;;;;20.00;18.30;;;4.20;99.90;;;;;;5052983;28;20436;-76
2021/04/20 05:34:46;;;;;;;19.47;17.77;;;4.30;99.90;;;;;;5052591;28;20859;-77
2021/04/20 05:37:12;;;;;;;21.77;19.77;;;4.40;99.90;;;;;;5052668;28;20495;-77
2021/04/20 05:39:39;;;;;;;19.93;18.07;;;4.40;99.90;;;;;;5052834;28;20508;-77
2021/04/20 05:42:06;;;;;;;19.33;17.63;;;4.70;99.90;;;;;;5052726;28;20429;-76
2021/04/20 05:44:32;;;;;;;19.73;18.07;;;4.90;99.90;;;;;;5051461;28;20461;-77
2021/04/20 05:46:59;;;;;;;20.50;18.70;;;5.10;99.90;;;;;;5052799;28;20192;-77
2021/04/20 05:49:27;;;;;;;19.47;17.87;;;5.30;99.90;;;;;;5052782;28;20444;-77
2021/04/20 05:51:53;;;;;;;20.40;18.60;;;5.50;99.90;;;;;;5052937;28;20438;-77
2021/04/20 05:54:20;;;;;;;18.70;17.10;;;5.50;99.90;;;;;;5052310;28;20513;-77
2021/04/20 05:56:48;;;;;;;18.20;16.70;;;5.60;99.90;;;;;;5053173;28;20840;-77
2021/04/20 05:59:17;;;;;;;17.97;16.47;;;5.60;99.90;;;;;;5055198;28;20442;-76
2021/04/20 06:01:44;;;;;;;18.20;16.70;;;5.80;99.90;;;;;;5052611;28;20246;-77
2021/04/20 06:04:12;;;;;;;13.60;10.87;;;5.80;99.90;;;;;;5067708;28;20598;-77
2021/04/20 06:06:40;;;;;;;12.07;10.67;;;5.80;99.90;;;;;;5052700;28;20373;-77
2021/04/20 06:09:09;;;;;;;12.57;10.57;;;5.80;99.90;;;;;;5051580;28;20192;-76
2021/04/20 06:11:35;;;;;;;13.63;10.73;;;5.70;99.90;;;;;;5067845;28;20282;-77
2021/04/20 06:14:03;;;;;;;10.77;9.20;;;5.70;99.90;;;;;;5052040;28;20222;-76
2021/04/20 06:16:31;;;;;;;11.93;9.50;;;5.80;99.90;;;;;;5052610;28;20207;-77
2021/04/20 06:18:58;;;;;;;12.60;10.10;;;5.80;99.90;;;;;;5052026;28;20188;-77
2021/04/20 06:21:26;;;;;;;11.73;10.20;;;5.90;99.90;;;;;;5051356;28;20238;-77
2021/04/20 06:23:53;;;;;;;13.30;9.97;;;6.10;99.90;;;;;;5051655;28;20215;-77
2021/04/20 06:26:20;;;;;;;11.57;9.90;;;6.10;99.90;;;;;;5050958;28;20199;-77
2021/04/20 06:28:46;;;;;;;12.80;10.77;;;6.30;99.90;;;;;;5051398;28;20591;-77
2021/04/20 06:31:15;;;;;;;13.37;12.07;;;6.40;99.90;;;;;;5059723;28;20210;-77
2021/04/20 06:33:45;;;;;;;14.37;13.03;;;6.50;99.90;;;;;;5051816;28;20220;-77
2021/04/20 06:36:11;;;;;;;14.43;12.40;;;6.70;99.90;;;;;;5051992;28;20227;-77
2021/04/20 06:38:39;;;;;;;16.37;14.97;;;6.80;99.90;;;;;;5052523;28;20249;-77
2021/04/20 06:41:07;;;;;;;17.13;15.53;;;7.10;99.90;;;;;;5051743;28;20200;-77
2021/04/20 06:43:48;;;;;;;12.33;10.27;;;7.20;99.90;;;;;;5040437;28;20229;-77
2021/04/20 06:46:23;;;;;;;11.27;9.97;;;7.50;99.90;;;;;;5033322;28;20198;-78
2021/04/20 06:48:55;;;;;;;15.00;13.60;;;7.60;99.90;;;;;;5033357;28;20192;-77
2021/04/20 06:51:25;;;;;;;18.23;16.63;;;7.70;99.90;;;;;;5063547;28;20584;-78
2021/04/20 06:53:55;;;;;;;17.97;16.37;;;7.80;99.90;;;;;;5047292;28;20914;-78
2021/04/20 06:56:30;;;;;;;15.20;13.70;;;7.80;99.90;;;;;;5037182;28;20224;-78
2021/04/20 06:59:07;;;;;;;16.60;15.20;;;8.00;99.90;;;;;;5068299;28;20712;-78
2021/04/20 07:01:39;;;;;;;16.87;15.37;;;8.10;99.90;;;;;;5051173;28;20196;-77
2021/04/20 07:04:13;;;;;;;17.63;16.13;;;8.30;99.90;;;;;;5051904;28;20227;-78
2021/04/20 07:06:58;;;;;;;17.93;16.33;;;8.50;99.90;;;;;;5038903;28;20207;-78
2021/04/20 07:09:28;;;;;;;17.00;15.60;;;8.80;99.90;;;;;;5055122;28;20690;-78
2021/04/20 07:11:55;;;;;;;17.47;15.90;;;9.00;99.90;;;;;;5038859;28;20611;-77
2021/04/20 07:14:30;;;;;;;11.77;10.03;;;9.30;99.90;;;;;;5034878;28;20711;-78
2021/04/20 07:17:06;;;;;;;14.80;13.23;;;9.60;99.90;;;;;;5068036;28;20632;-78
2021/04/20 07:19:55;;;;;;;14.37;12.97;;;9.50;99.90;;;;;;5036989;28;20199;-78
2021/04/20 07:22:51;;;;;;;13.87;12.47;;;9.50;99.90;;;;;;5050843;28;20200;-78
2021/04/20 07:25:25;;;;;;;13.20;11.90;;;9.40;99.90;;;;;;5067077;28;20206;-78
2021/04/20 07:28:04;;;;;;;13.20;11.93;;;9.60;99.90;;;;;;5037158;28;20192;-78
2021/04/20 07:30:34;;;;;;;12.47;11.27;;;9.70;99.90;;;;;;5036528;28;20192;-77
2021/04/20 07:33:27;;;;;;;16.87;15.17;;;9.90;99.90;;;;;;5053256;28;20210;-80
2021/04/20 07:36:00;;;;;;;17.17;15.77;;;10.30;99.90;;;;;;5052371;28;20237;-79
2021/04/20 07:38:33;;;;;;;16.80;15.40;;;10.60;99.90;;;;;;5053591;28;20214;-79
2021/04/20 07:41:10;;;;;;;18.80;17.13;;;10.90;99.90;;;;;;5055210;28;20195;-79
2021/04/20 07:43:57;;;;;;;17.70;16.00;;;11.00;99.90;;;;;;5055870;28;20651;-79
2021/04/20 07:46:30;;;;;;;16.97;15.37;;;11.50;99.90;;;;;;5051419;28;20592;-77
2021/04/20 07:49:03;;;;;;;16.03;14.73;;;11.90;99.90;;;;;;5055401;28;20327;-78
2021/04/20 07:51:36;;;;;;;18.03;16.53;;;12.30;99.90;;;;;;5051952;28;20205;-78
2021/04/20 07:54:07;;;;;;;17.27;15.67;;;12.40;99.90;;;;;;5049190;28;20214;-77
2021/04/20 07:56:39;;;;;;;18.03;16.43;;;12.10;99.90;;;;;;5054654;28;20288;-78
2021/04/20 07:59:12;;;;;;;17.47;15.97;;;12.20;99.90;;;;;;5061464;28;20206;-78
2021/04/20 08:01:43;;;;;;;18.57;17.07;;;12.30;99.90;;;;;;5052512;28;20198;-78
2021/04/20 08:04:45;;;;;;;19.40;17.70;;;12.60;99.90;;;;;;5054549;28;20312;-78
2021/04/20 08:07:17;;;;;;;19.50;17.70;;;12.90;99.90;;;;;;5052958;28;20216;-78
2021/04/20 08:09:48;;;;;;;19.13;17.43;;;13.20;99.90;;;;;;5055280;28;20211;-78
2021/04/20 08:12:20;;;;;;;19.83;17.90;;;13.40;99.90;;;;;;5056485;28;20220;-78
2021/04/20 08:14:51;;;;;;;19.00;17.20;;;13.30;99.90;;;;;;5057543;28;20767;-78
2021/04/20 08:17:32;;;;;;;18.67;16.90;;;13.50;99.90;;;;;;5057601;28;20195;-78
2021/04/20 08:20:04;;;;;;;18.77;16.93;;;13.60;99.90;;;;;;5057367;28;20205;-78
2021/04/20 08:22:31;;;;;;;19.50;17.80;;;13.80;99.90;;;;;;5057985;28;20245;-77
2021/04/20 08:25:03;;;;;;;18.40;16.70;;;13.90;99.90;;;;;;5058284;28;20211;-78
2021/04/20 08:27:35;;;;;;;18.97;17.13;;;14.10;99.90;;;;;;5056694;28;20667;-78
2021/04/20 08:30:09;;;;;;;17.77;16.10;;;14.20;99.90;;;;;;5049914;28;20206;-79
2021/04/20 08:32:38;;;;;;;19.40;17.60;;;14.50;99.90;;;;;;5056210;28;20249;-78
2021/04/20 08:35:15;;;;;;;18.53;16.77;;;14.60;99.90;;;;;;5072133;28;20241;-79
2021/04/20 08:38:02;;;;;;;20.10;18.37;;;14.80;99.90;;;;;;5056956;28;20214;-79
2021/04/20 08:40:40;;;;;;;21.07;19.03;;;14.80;99.90;;;;;;5056732;28;20199;-78
2021/04/20 08:43:28;;;;;;;20.40;18.60;;;14.80;99.90;;;;;;5049440;28;20249;-78
2021/04/20 08:46:02;;;;;;;20.13;18.23;;;15.00;99.90;;;;;;5057346;28;20207;-78
2021/04/20 08:48:38;;;;;;;20.53;18.63;;;15.20;99.90;;;;;;5056300;28;20656;-79
2021/04/20 08:51:13;;;;;;;21.37;19.40;;;15.40;99.90;;;;;;5050352;28;20198;-79
2021/04/20 08:54:00;;;;;;;21.83;19.67;;;15.40;99.90;;;;;;5056152;28;20636;-79
2021/04/20 08:56:32;;;;;;;21.57;19.47;;;15.60;99.90;;;;;;5055050;28;20222;-78
2021/04/20 08:59:20;;;;;;;20.40;18.50;;;15.80;99.90;;;;;;5054396;28;20213;-79
2021/04/20 09:02:00;;;;;;;20.97;19.07;;;16.20;99.90;;;;;;5056122;28;20201;-79
2021/04/20 09:04:54;;;;;;;24.90;22.40;;;16.10;99.90;;;;;;5054460;28;20231;-78
2021/04/20 09:07:31;;;;;;;21.43;19.47;;;16.40;99.90;;;;;;5055529;28;20228;-78
2021/04/20 09:10:05;;;;;;;21.50;19.47;;;16.40;99.90;;;;;;5054852;28;20675;-79
2021/04/20 09:12:35;;;;;;;19.17;17.33;;;16.40;99.90;;;;;;5050493;28;20196;-78
2021/04/20 09:15:04;;;;;;;22.67;20.47;;;15.70;99.90;;;;;;5063957;28;20229;-78
2021/04/20 09:17:37;;;;;;;23.93;21.57;;;15.90;99.90;;;;;;5055871;28;20206;-79
2021/04/20 09:20:08;;;;;;;19.23;16.97;;;16.10;99.90;;;;;;5048221;28;20206;-79
2021/04/20 09:22:53;;;;;;;16.70;13.13;;;16.30;99.90;;;;;;5054331;28;20200;-78
2021/04/20 09:25:24;;;;;;;15.20;13.60;;;16.50;99.90;;;;;;5047413;28;20787;-76
2021/04/20 09:28:01;;;;;;;16.93;14.40;;;16.30;99.90;;;;;;5052980;28;20195;-77
2021/04/20 09:30:31;;;;;;;19.17;17.20;;;16.30;99.90;;;;;;5054788;28;20233;-77
2021/04/20 09:33:06;;;;;;;19.33;17.53;;;16.40;99.90;;;;;;5054250;28;20217;-77
2021/04/20 09:35:33;;;;;;;19.07;17.27;;;16.20;99.90;;;;;;5049838;28;20225;-78
2021/04/20 09:38:03;;;;;;;17.43;15.73;;;16.20;99.90;;;;;;5053403;28;20218;-77
2021/04/20 09:40:30;;;;;;;18.87;17.17;;;16.40;99.90;;;;;;5053537;28;20274;-77
2021/04/20 09:43:02;;;;;;;18.87;17.17;;;16.70;99.90;;;;;;5052279;28;20188;-77
2021/04/20 09:45:36;;;;;;;17.03;15.67;;;16.80;99.90;;;;;;5053108;28;20187;-77
2021/04/20 09:48:10;;;;;;;18.73;17.03;;;17.10;99.90;;;;;;5036644;28;20671;-77
2021/04/20 09:50:44;;;;;;;17.87;16.37;;;16.90;99.90;;;;;;5052060;28;20202;-77
2021/04/20 09:53:26;;;;;;;13.33;12.13;;;16.80;99.90;;;;;;5046719;28;20233;-77
2021/04/20 09:56:04;;;;;;;16.03;14.67;;;17.10;99.90;;;;;;5050193;28;20204;-77
2021/04/20 09:58:33;;;;;;;15.80;14.40;;;17.50;99.90;;;;;;5042252;28;20193;-77
2021/04/20 10:01:17;;;;;;;15.43;14.00;;;17.20;99.90;;;;;;5051412;28;20195;-77
2021/04/20 10:03:57;;;;;;;15.50;14.20;;;17.30;99.90;;;;;;5042422;28;20222;-78
2021/04/20 10:06:54;;;;;;;13.30;12.20;;;17.30;99.90;;;;;;5048894;28;20559;-77
2021/04/20 10:09:32;;;;;;;12.63;11.57;;;17.20;99.90;;;;;;5051633;28;20723;-77
2021/04/20 10:12:11;;;;;;;13.63;12.43;;;17.10;99.90;;;;;;5044946;28;20195;-77
2021/04/20 10:14:51;;;;;;;12.97;11.87;;;16.70;99.90;;;;;;5044247;28;20726;-77
2021/04/20 10:17:28;;;;;;;12.60;11.43;;;16.60;99.90;;;;;;5051686;28;20655;-78
2021/04/20 10:20:06;;;;;;;11.33;10.43;;;16.70;99.90;;;;;;5044831;28;20198;-79
2021/04/20 10:22:40;;;;;;;10.70;9.90;;;16.80;99.90;;;;;;5048178;28;20226;-78
2021/04/20 10:25:14;;;;;;;11.03;10.23;;;16.80;99.90;;;;;;5050183;28;20420;-78
2021/04/20 10:27:43;;;;;;;12.27;11.23;;;16.70;99.90;;;;;;5036137;28;20329;-78
2021/04/20 10:30:15;;;;;;;11.53;10.70;;;16.50;99.90;;;;;;5042457;28;20202;-78
2021/04/20 10:32:46;;;;;;;12.40;11.40;;;16.60;99.90;;;;;;5063422;28;20201;-78
2021/04/20 10:35:14;;;;;;;11.80;10.90;;;16.50;99.90;;;;;;5036358;28;20690;-78
2021/04/20 10:37:44;;;;;;;12.00;11.00;;;16.60;99.90;;;;;;5048213;28;20579;-78
2021/04/20 10:40:14;;;;;;;11.80;10.80;;;16.50;99.90;;;;;;5038356;28;20209;-78
2021/04/20 10:42:44;;;;;;;11.83;10.83;;;16.50;99.90;;;;;;5039131;28;20191;-78
2021/04/20 10:45:12;;;;;;;12.60;11.53;;;16.40;99.90;;;;;;5037259;28;20225;-78
2021/04/20 10:47:40;;;;;;;11.50;10.60;;;16.20;99.90;;;;;;5046220;28;20200;-78
2021/04/20 10:50:09;;;;;;;11.70;10.80;;;16.10;99.90;;;;;;5037811;28;20184;-78
2021/04/20 10:52:37;;;;;;;12.87;11.77;;;16.40;99.90;;;;;;5038922;28;20193;-78
2021/04/20 10:55:07;;;;;;;11.87;10.90;;;16.20;99.90;;;;;;5039222;28;20583;-78
2021/04/20 10:57:37;;;;;;;12.90;11.77;;;16.10;99.90;;;;;;5036362;28;20205;-78
2021/04/20 11:00:05;;;;;;;13.97;12.57;;;16.00;99.90;;;;;;5039331;28;20198;-78
2021/04/20 11:02:36;;;;;;;13.27;12.07;;;16.00;99.90;;;;;;5046423;28;20205;-78
2021/04/20 11:05:03;;;;;;;11.87;10.87;;;15.80;99.90;;;;;;5050492;28;20216;-78
2021/04/20 11:07:33;;;;;;;12.17;11.17;;;15.90;99.90;;;;;;5053892;28;20192;-78
2021/04/20 11:10:02;;;;;;;12.77;11.63;;;16.10;99.90;;;;;;5053506;28;20189;-78
2021/04/20 11:12:29;;;;;;;13.73;12.53;;;16.00;99.90;;;;;;5053107;28;20211;-78
2021/04/20 11:14:57;;;;;;;13.93;12.67;;;16.00;99.90;;;;;;5045015;28;20275;-79
2021/04/20 11:17:26;;;;;;;12.50;11.43;;;15.60;99.90;;;;;;5052002;28;20196;-77
2021/04/20 11:19:58;;;;;;;14.57;13.27;;;15.70;99.90;;;;;;5039842;28;20188;-78
2021/04/20 11:22:27;;;;;;;13.00;11.80;;;15.80;99.90;;;;;;5037428;28;20200;-77
2021/04/20 11:24:59;;;;;;;12.27;11.23;;;15.70;99.90;;;;;;5050204;28;20211;-78
2021/04/20 11:27:30;;;;;;;13.40;12.20;;;15.70;99.90;;;;;;5040997;28;20207;-77
2021/04/20 11:30:07;;;;;;;14.10;12.90;;;15.60;99.90;;;;;;5036263;28;20187;-77
2021/04/20 11:32:36;;;;;;;12.50;11.30;;;15.30;99.90;;;;;;5043884;28;20200;-77
2021/04/20 11:35:08;;;;;;;14.13;12.83;;;15.50;99.90;;;;;;5061104;28;20211;-77
2021/04/20 11:37:36;;;;;;;13.27;11.97;;;15.50;99.90;;;;;;5039446;28;20196;-78
2021/04/20 11:40:07;;;;;;;11.70;10.70;;;15.70;99.90;;;;;;5046995;28;20298;-77
2021/04/20 11:42:39;;;;;;;13.80;12.60;;;16.10;99.90;;;;;;5042657;28;20267;-77
2021/04/20 11:45:14;;;;;;;10.17;9.27;;;16.30;99.90;;;;;;5044438;28;20220;-77
2021/04/20 11:48:09;;;;;;;12.33;11.10;;;16.50;99.90;;;;;;5039460;28;20192;-78
2021/04/20 11:50:38;;;;;;;11.43;10.33;;;16.50;99.90;;;;;;5023379;28;20197;-77
2021/04/20 11:53:08;;;;;;;11.63;10.70;;;16.30;99.90;;;;;;5039010;28;20701;-77
2021/04/20 11:55:37;;;;;;;14.33;12.97;;;16.40;99.90;;;;;;5066967;28;20227;-77
2021/04/20 11:58:06;;;;;;;14.63;13.23;;;16.50;99.90;;;;;;5041448;28;20643;-77
2021/04/20 12:00:36;;;;;;;13.53;12.20;;;16.30;99.90;;;;;;5045454;28;20203;-77
2021/04/20 12:03:12;;;;;;;10.93;9.83;;;16.20;99.90;;;;;;5068163;28;20205;-77
2021/04/20 12:05:40;;;;;;;11.07;9.93;;;16.10;99.90;;;;;;5042236;28;20192;-77
2021/04/20 12:08:11;;;;;;;12.47;11.47;;;15.90;99.90;;;;;;5038975;28;20227;-77
2021/04/20 12:10:38;;;;;;;12.00;10.90;;;16.00;99.90;;;;;;5051776;28;20251;-77
2021/04/20 12:13:05;;;;;;;12.53;10.93;;;15.80;99.90;;;;;;5055520;28;20200;-77
2021/04/20 12:15:33;;;;;;;9.70;8.70;;;15.60;99.90;;;;;;5055061;28;20222;-77
2021/04/20 12:18:00;;;;;;;10.67;9.57;;;15.50;99.90;;;;;;5054614;28;20307;-78
2021/04/20 12:20:28;;;;;;;11.67;10.57;;;15.50;99.90;;;;;;5055841;28;20204;-78
2021/04/20 12:22:56;;;;;;;9.17;8.27;;;15.60;99.90;;;;;;5055404;28;21165;-78
2021/04/20 12:25:23;;;;;;;10.10;9.20;;;15.70;99.90;;;;;;5050300;28;20197;-78
2021/04/20 12:27:52;;;;;;;11.27;10.07;;;16.00;99.90;;;;;;5053283;28;20262;-78
2021/04/20 12:30:20;;;;;;;12.63;11.47;;;16.10;99.90;;;;;;5052348;28;20197;-78
2021/04/20 12:32:47;;;;;;;9.30;8.27;;;16.20;99.90;;;;;;5060340;28;20225;-78
2021/04/20 12:35:15;;;;;;;9.60;8.60;;;16.50;99.90;;;;;;5050334;28;20659;-78
2021/04/20 12:37:42;;;;;;;11.70;8.33;;;16.60;99.90;;;;;;5045445;28;20249;-78
2021/04/20 12:40:11;;;;;;;9.80;8.80;;;16.40;99.90;;;;;;5047401;28;20674;-78
2021/04/20 12:42:39;;;;;;;11.70;10.70;;;16.30;99.90;;;;;;5046897;28;20207;-78
2021/04/20 12:45:10;;;;;;;13.40;12.17;;;16.20;99.90;;;;;;5054673;28;20284;-78
2021/04/20 12:47:38;;;;;;;12.97;11.73;;;15.90;99.90;;;;;;5055470;28;20248;-78
2021/04/20 12:50:08;;;;;;;13.40;12.00;;;15.60;99.90;;;;;;5054728;28;20199;-77